createdAt,value
2024-05-09T00:00:36.335Z,73.28
2024-05-09T00:03:08.050Z,73.28
2024-05-09T00:05:36.371Z,73.72
2024-05-09T00:08:03.942Z,73.42
2024-05-09T00:10:36.340Z,73.57
2024-05-09T00:13:06.374Z,73.90
2024-05-09T00:15:34.086Z,73.78
2024-05-09T00:18:01.735Z,73.17
2024-05-09T00:20:36.844Z,73.33
2024-05-09T00:23:12.070Z,73.65
2024-05-09T00:25:39.828Z,73.23
2024-05-09T00:28:06.802Z,73.23
2024-05-09T00:30:36.161Z,73.34
2024-05-09T00:33:06.209Z,73.73
2024-05-09T00:35:34.707Z,73.98
2024-05-09T00:38:01.569Z,73.73
2024-05-09T00:40:39.052Z,73.76
2024-05-09T00:43:08.601Z,73.84
2024-05-09T00:45:35.993Z,74.13
2024-05-09T00:48:07.978Z,74.32
2024-05-09T00:50:38.822Z,74.00
2024-05-09T00:53:07.904Z,74.11
2024-05-09T00:55:36.169Z,73.83
2024-05-09T00:58:03.699Z,74.12
2024-05-09T01:00:37.924Z,74.38
2024-05-09T01:03:07.306Z,74.64
2024-05-09T01:05:35.034Z,74.29
2024-05-09T01:08:02.728Z,74.25
2024-05-09T01:10:34.434Z,74.14
2024-05-09T01:13:07.162Z,74.41
2024-05-09T01:15:34.896Z,74.60
2024-05-09T01:18:07.157Z,74.37
2024-05-09T01:20:41.103Z,74.69
2024-05-09T01:23:11.188Z,74.84
2024-05-09T01:25:38.346Z,74.94
2024-05-09T01:28:05.869Z,74.66
2024-05-09T01:30:35.701Z,75.19
2024-05-09T01:33:06.284Z,74.88
2024-05-09T01:35:34.708Z,74.90
2024-05-09T01:38:01.558Z,75.18
2024-05-09T01:40:37.020Z,75.43
2024-05-09T01:43:06.974Z,75.09
2024-05-09T01:45:33.727Z,75.37
2024-05-09T01:48:01.022Z,75.09
2024-05-09T01:50:37.672Z,75.15
2024-05-09T01:53:12.008Z,75.02
2024-05-09T01:55:39.218Z,74.89
2024-05-09T01:58:06.156Z,75.22
2024-05-09T02:00:39.244Z,75.10
2024-05-09T02:03:10.793Z,75.33
2024-05-09T02:05:39.777Z,75.25
2024-05-09T02:08:07.050Z,75.11
2024-05-09T02:10:33.858Z,75.29
2024-05-09T02:13:01.065Z,75.68
2024-05-09T02:15:27.948Z,74.99
2024-05-09T02:17:55.414Z,75.67
2024-05-09T02:20:30.576Z,75.54
2024-05-09T02:23:04.473Z,75.46
2024-05-09T02:25:32.434Z,75.19
2024-05-09T02:27:59.456Z,75.07
2024-05-09T02:30:35.907Z,75.25
2024-05-09T02:33:07.781Z,75.61
2024-05-09T02:35:35.088Z,75.43
2024-05-09T02:38:02.060Z,75.20
2024-05-09T02:40:36.650Z,75.37
2024-05-09T02:43:06.649Z,75.38
2024-05-09T02:45:33.710Z,75.45
2024-05-09T02:48:01.571Z,75.41
2024-05-09T02:50:37.080Z,75.75
2024-05-09T02:53:10.877Z,75.64
2024-05-09T02:55:41.725Z,75.56
2024-05-09T02:58:09.231Z,74.92
2024-05-09T03:00:39.901Z,75.40
2024-05-09T03:03:11.119Z,75.23
2024-05-09T03:05:40.799Z,75.41
2024-05-09T03:08:07.975Z,75.22
2024-05-09T03:10:37.038Z,75.06
2024-05-09T03:13:14.434Z,75.29
2024-05-09T03:15:42.992Z,75.27
2024-05-09T03:18:10.136Z,75.09
2024-05-09T03:20:38.060Z,74.94
2024-05-09T03:23:08.122Z,74.76
2024-05-09T03:25:36.106Z,75.02
2024-05-09T03:28:02.846Z,75.04
2024-05-09T03:30:38.934Z,75.15
2024-05-09T03:33:20.081Z,74.67
2024-05-09T03:35:48.380Z,74.78
2024-05-09T03:38:15.629Z,74.85
2024-05-09T03:40:47.032Z,75.46
2024-05-09T03:43:14.435Z,75.35
2024-05-09T03:45:42.507Z,75.00
2024-05-09T03:48:09.320Z,75.43
2024-05-09T03:50:38.871Z,75.03
2024-05-09T03:53:06.397Z,75.06
2024-05-09T03:55:33.268Z,75.29
2024-05-09T03:57:59.989Z,75.20
2024-05-09T04:00:35.086Z,74.83
2024-05-09T04:03:07.700Z,75.08
2024-05-09T04:05:38.020Z,75.50
2024-05-09T04:08:05.485Z,75.58
2024-05-09T04:10:34.219Z,75.35
2024-05-09T04:13:03.045Z,75.72
2024-05-09T04:15:30.147Z,76.08
2024-05-09T04:17:56.989Z,75.49
2024-05-09T04:20:35.562Z,75.20
2024-05-09T04:23:07.295Z,75.45
2024-05-09T04:25:35.002Z,75.28
2024-05-09T04:28:01.718Z,75.27
2024-05-09T04:30:37.154Z,75.45
2024-05-09T04:33:08.852Z,75.57
2024-05-09T04:35:37.710Z,75.51
2024-05-09T04:38:05.523Z,75.33
2024-05-09T04:40:35.561Z,75.54
2024-05-09T04:43:13.610Z,75.60
2024-05-09T04:45:40.937Z,75.86
2024-05-09T04:48:08.192Z,75.53
2024-05-09T04:50:38.316Z,75.89
2024-05-09T04:53:09.010Z,75.67
2024-05-09T04:55:37.222Z,75.64
2024-05-09T04:58:04.063Z,76.05
2024-05-09T05:00:36.382Z,76.27
2024-05-09T05:03:07.464Z,76.25
2024-05-09T05:05:38.198Z,76.03
2024-05-09T05:08:05.746Z,76.09
2024-05-09T05:10:36.223Z,76.22
2024-05-09T05:13:18.194Z,76.41
2024-05-09T05:15:58.692Z,76.57
2024-05-09T05:18:29.381Z,76.99
2024-05-09T05:20:57.086Z,77.35
2024-05-09T05:23:24.542Z,77.55
2024-05-09T05:25:55.584Z,77.99
2024-05-09T05:28:22.598Z,78.16
2024-05-09T05:30:49.530Z,78.01
2024-05-09T05:33:19.918Z,78.18
2024-05-09T05:35:47.283Z,78.40
2024-05-09T05:38:14.193Z,79.03
2024-05-09T05:40:41.379Z,78.86
2024-05-09T05:43:10.427Z,78.68
2024-05-09T05:45:37.915Z,79.31
2024-05-09T05:48:07.096Z,78.92
2024-05-09T05:50:37.371Z,78.79
2024-05-09T05:53:10.073Z,79.46
2024-05-09T05:55:41.341Z,79.50
2024-05-09T05:58:11.835Z,79.93
2024-05-09T06:00:40.946Z,79.54
2024-05-09T06:03:09.595Z,80.53
2024-05-09T06:05:39.628Z,80.19
2024-05-09T06:08:07.135Z,80.13
2024-05-09T06:10:38.723Z,79.90
2024-05-09T06:13:08.267Z,79.47
2024-05-09T06:15:35.087Z,78.93
2024-05-09T06:18:02.194Z,79.73
2024-05-09T06:20:35.736Z,79.92
2024-05-09T06:23:08.038Z,79.72
2024-05-09T06:25:36.072Z,79.51
2024-05-09T06:28:03.524Z,79.94
2024-05-09T06:30:37.860Z,80.39
2024-05-09T06:33:09.240Z,79.90
2024-05-09T06:35:37.453Z,80.23
2024-05-09T06:38:04.571Z,80.97
2024-05-09T06:40:37.373Z,81.49
2024-05-09T06:43:20.122Z,80.89
2024-05-09T06:45:54.178Z,80.88
2024-05-09T06:48:22.063Z,80.72
2024-05-09T06:50:49.832Z,81.00
2024-05-09T06:53:17.404Z,81.91
2024-05-09T06:55:44.329Z,81.65
2024-05-09T06:58:10.982Z,81.04
2024-05-09T07:00:40.499Z,81.47
2024-05-09T07:03:17.824Z,81.24
2024-05-09T07:05:47.806Z,79.89
2024-05-09T07:08:15.849Z,80.00
2024-05-09T07:10:42.919Z,80.18
2024-05-09T07:13:15.140Z,80.12
2024-05-09T07:15:42.944Z,78.94
2024-05-09T07:18:15.689Z,78.01
2024-05-09T07:20:43.382Z,77.09
2024-05-09T07:23:10.969Z,75.58
2024-05-09T07:25:38.353Z,75.81
2024-05-09T07:28:06.193Z,74.78
2024-05-09T07:30:34.563Z,73.78
2024-05-09T07:33:03.071Z,73.33
2024-05-09T07:35:30.894Z,72.57
2024-05-09T07:38:00.633Z,72.88
2024-05-09T07:40:35.019Z,72.82
2024-05-09T07:43:04.788Z,72.19
2024-05-09T07:45:48.117Z,70.74
2024-05-09T07:52:38.547Z,70.17
2024-05-09T07:53:46.559Z,70.37
2024-05-09T07:56:16.849Z,69.30
2024-05-09T07:58:46.075Z,68.75
2024-05-09T08:01:12.971Z,69.36
2024-05-09T08:03:39.980Z,67.95
2024-05-09T08:06:06.698Z,66.94
2024-05-09T08:08:33.417Z,66.48
2024-05-09T08:11:02.225Z,66.01
2024-05-09T08:13:28.960Z,65.66
2024-05-09T08:15:55.637Z,67.39
2024-05-09T08:18:22.440Z,64.35
2024-05-09T08:20:52.066Z,64.13
2024-05-09T08:23:18.837Z,64.86
2024-05-09T08:25:45.665Z,64.65
2024-05-09T08:28:12.962Z,64.24
2024-05-09T08:30:39.968Z,64.97
2024-05-09T08:33:07.774Z,62.94
2024-05-09T08:35:36.127Z,62.39
2024-05-09T08:38:04.496Z,60.52
2024-05-09T08:40:35.723Z,60.75
2024-05-09T08:43:07.947Z,62.51
2024-05-09T08:45:36.631Z,60.72
2024-05-09T08:48:08.038Z,60.81
2024-05-09T08:50:39.219Z,60.84
2024-05-09T08:53:07.202Z,62.15
2024-05-09T08:55:34.051Z,60.92
2024-05-09T08:58:05.626Z,59.98
2024-05-09T09:00:38.961Z,58.59
2024-05-09T09:03:09.435Z,58.86
2024-05-09T09:05:39.704Z,59.20
2024-05-09T09:08:08.817Z,59.91
2024-05-09T09:10:35.899Z,59.38
2024-05-09T09:13:09.575Z,58.19
2024-05-09T09:15:50.250Z,59.10
2024-05-09T09:18:17.832Z,58.33
2024-05-09T09:20:45.564Z,59.36
2024-05-09T09:23:14.045Z,58.42
2024-05-09T09:25:41.094Z,57.49
2024-05-09T09:28:08.974Z,57.72
2024-05-09T09:30:42.453Z,57.58
2024-05-09T09:33:10.455Z,56.73
2024-05-09T09:35:40.081Z,56.57
2024-05-09T09:38:07.796Z,57.85
2024-05-09T09:40:40.917Z,55.98
2024-05-09T09:43:15.267Z,57.92
2024-05-09T09:45:44.165Z,54.70
2024-05-09T09:48:14.655Z,56.14
2024-05-09T09:50:42.137Z,54.21
2024-05-09T09:53:10.337Z,53.96
2024-05-09T09:55:38.075Z,55.83
2024-05-09T09:58:06.467Z,54.37
2024-05-09T10:00:34.679Z,54.40
2024-05-09T10:03:02.233Z,53.51
2024-05-09T10:05:30.301Z,54.19
2024-05-09T10:07:58.939Z,53.97
2024-05-09T10:10:31.654Z,55.20
2024-05-09T10:13:01.183Z,55.88
2024-05-09T10:15:28.137Z,55.15
2024-05-09T10:18:04.557Z,53.91
2024-05-09T10:20:44.947Z,55.28
2024-05-09T10:23:28.981Z,53.56
2024-05-09T10:25:59.960Z,53.86
2024-05-09T10:28:31.653Z,53.36
2024-05-09T10:31:15.491Z,54.69
2024-05-09T10:33:51.025Z,53.07
2024-05-09T10:36:23.029Z,52.61
2024-05-09T10:38:50.734Z,53.16
2024-05-09T10:41:18.285Z,52.90
2024-05-09T10:43:44.958Z,54.94
2024-05-09T10:46:12.066Z,54.40
2024-05-09T10:48:40.454Z,53.58
2024-05-09T10:51:08.337Z,53.58
2024-05-09T10:53:45.901Z,54.15
2024-05-09T10:56:16.222Z,54.71
2024-05-09T10:58:43.061Z,55.51
2024-05-09T11:01:10.909Z,53.74
2024-05-09T11:03:38.836Z,54.31
2024-05-09T11:06:06.658Z,54.34
2024-05-09T11:08:35.164Z,54.09
2024-05-09T11:11:06.738Z,53.51
2024-05-09T11:13:35.343Z,53.76
2024-05-09T11:16:02.957Z,52.06
2024-05-09T11:18:35.164Z,52.61
2024-05-09T11:21:13.138Z,54.45
2024-05-09T11:23:40.573Z,54.09
2024-05-09T11:26:07.528Z,53.89
2024-05-09T11:28:34.334Z,54.65
2024-05-09T11:31:09.635Z,53.62
2024-05-09T11:33:39.157Z,54.09
2024-05-09T11:36:07.373Z,52.80
2024-05-09T11:38:34.275Z,55.01
2024-05-09T11:41:02.113Z,54.04
2024-05-09T11:43:29.001Z,53.11
2024-05-09T11:45:57.844Z,54.55
2024-05-09T11:48:25.463Z,54.19
2024-05-09T11:50:52.787Z,54.41
2024-05-09T11:53:19.646Z,56.58
2024-05-09T11:55:46.429Z,54.06
2024-05-09T11:58:15.109Z,53.98
2024-05-09T12:00:41.838Z,55.42
2024-05-09T12:03:08.569Z,54.71
2024-05-09T12:05:35.397Z,54.24
2024-05-09T12:08:02.501Z,53.51
2024-05-09T12:10:33.811Z,53.87
2024-05-09T12:13:04.806Z,53.50
2024-05-09T12:15:33.324Z,54.33
2024-05-09T12:18:02.524Z,52.46
2024-05-09T12:20:36.602Z,54.71
2024-05-09T12:23:05.908Z,56.13
2024-05-09T12:25:32.595Z,53.69
2024-05-09T12:27:59.572Z,54.16
2024-05-09T12:30:35.361Z,55.46
2024-05-09T12:33:06.331Z,55.41
2024-05-09T12:35:33.259Z,54.47
2024-05-09T12:38:00.116Z,53.47
2024-05-09T12:40:34.824Z,52.54
2024-05-09T12:43:05.248Z,53.11
2024-05-09T12:45:32.482Z,53.46
2024-05-09T12:47:59.600Z,52.91
2024-05-09T12:50:32.368Z,54.53
2024-05-09T12:53:01.840Z,52.46
2024-05-09T12:55:33.526Z,54.68
2024-05-09T12:58:07.106Z,53.49
2024-05-09T13:00:34.584Z,55.51
2024-05-09T13:03:01.693Z,53.76
2024-05-09T13:05:29.061Z,53.52
2024-05-09T13:07:56.854Z,53.31
2024-05-09T13:10:31.040Z,51.79
2024-05-09T13:13:00.272Z,53.19
2024-05-09T13:15:27.490Z,54.81
2024-05-09T13:17:56.488Z,52.47
2024-05-09T13:20:31.635Z,53.73
2024-05-09T13:23:02.255Z,53.23
2024-05-09T13:25:28.976Z,52.58
2024-05-09T13:27:56.834Z,54.29
2024-05-09T13:30:29.830Z,55.48
2024-05-09T13:33:06.113Z,55.66
2024-05-09T13:35:35.225Z,54.99
2024-05-09T13:38:02.899Z,55.22
2024-05-09T13:40:34.131Z,55.12
2024-05-09T13:43:05.794Z,55.07
2024-05-09T13:45:33.279Z,55.88
2024-05-09T13:48:00.952Z,56.63
2024-05-09T13:50:33.903Z,54.73
2024-05-09T13:53:05.424Z,54.77
2024-05-09T13:55:33.153Z,55.27
2024-05-09T13:58:00.599Z,55.68
2024-05-09T14:00:38.429Z,55.93
2024-05-09T14:03:11.710Z,55.62
2024-05-09T14:05:39.049Z,56.80
2024-05-09T14:08:07.109Z,53.38
2024-05-09T14:10:33.902Z,55.71
2024-05-09T14:13:01.368Z,54.72
2024-05-09T14:15:28.305Z,54.12
2024-05-09T14:17:55.708Z,52.95
2024-05-09T14:20:30.578Z,55.93
2024-05-09T14:22:59.659Z,54.57
2024-05-09T14:25:30.502Z,54.25
2024-05-09T14:27:59.785Z,54.32
2024-05-09T14:30:34.547Z,54.58
2024-05-09T14:33:06.395Z,56.06
2024-05-09T14:35:34.082Z,55.25
2024-05-09T14:38:01.184Z,53.73
2024-05-09T14:40:38.759Z,55.85
2024-05-09T14:43:14.760Z,55.80
2024-05-09T14:45:42.111Z,55.13
2024-05-09T14:48:09.943Z,55.73
2024-05-09T14:50:39.423Z,54.25
2024-05-09T14:53:08.472Z,54.28
2024-05-09T14:55:37.471Z,54.65
2024-05-09T14:58:09.007Z,54.94
2024-05-09T15:00:41.251Z,53.93
2024-05-09T15:03:11.275Z,55.05
2024-05-09T15:05:38.081Z,55.89
2024-05-09T15:08:08.615Z,54.13
2024-05-09T15:10:37.017Z,55.36
2024-05-09T15:13:05.848Z,53.42
2024-05-09T15:15:33.720Z,53.82
2024-05-09T15:18:00.542Z,55.25
2024-05-09T15:20:34.240Z,55.03
2024-05-09T15:23:04.484Z,55.12
2024-05-09T15:25:31.247Z,56.51
2024-05-09T15:27:58.166Z,54.53
2024-05-09T15:30:30.941Z,55.43
2024-05-09T15:33:00.745Z,55.69
2024-05-09T15:35:27.716Z,55.86
2024-05-09T15:37:54.540Z,55.40
2024-05-09T15:40:30.781Z,55.03
2024-05-09T15:43:04.854Z,54.34
2024-05-09T15:45:32.234Z,54.86
2024-05-09T15:47:59.624Z,54.31
2024-05-09T15:50:36.236Z,55.62
2024-05-09T15:53:07.243Z,55.79
2024-05-09T15:55:34.933Z,55.18
2024-05-09T15:58:02.882Z,56.10
2024-05-09T16:00:37.445Z,56.14
2024-05-09T16:03:08.053Z,55.95
2024-05-09T16:05:35.175Z,56.85
2024-05-09T16:08:02.589Z,55.72
2024-05-09T16:10:33.018Z,56.36
2024-05-09T16:13:01.605Z,56.37
2024-05-09T16:15:29.212Z,55.92
2024-05-09T16:17:56.263Z,55.82
2024-05-09T16:20:34.272Z,55.60
2024-05-09T16:23:06.513Z,54.84
2024-05-09T16:25:33.432Z,54.52
2024-05-09T16:28:00.490Z,55.54
2024-05-09T16:30:34.286Z,55.97
2024-05-09T16:33:04.055Z,56.23
2024-05-09T16:35:31.648Z,55.75
2024-05-09T16:37:58.363Z,56.44
2024-05-09T16:40:34.103Z,56.74
2024-05-09T16:43:05.761Z,57.08
2024-05-09T16:45:33.359Z,56.05
2024-05-09T16:48:01.615Z,55.76
2024-05-09T16:50:32.812Z,55.68
2024-05-09T16:53:01.982Z,55.73
2024-05-09T16:55:29.066Z,55.46
2024-05-09T16:57:57.154Z,56.87
2024-05-09T17:00:35.199Z,57.26
2024-05-09T17:03:10.171Z,55.79
2024-05-09T17:05:37.917Z,57.66
2024-05-09T17:08:06.246Z,55.93
2024-05-09T17:10:34.962Z,56.69
2024-05-09T17:13:07.348Z,55.65
2024-05-09T17:15:35.947Z,55.61
2024-05-09T17:18:04.086Z,55.40
2024-05-09T17:20:34.640Z,55.24
2024-05-09T17:23:04.960Z,55.20
2024-05-09T17:25:32.465Z,55.17
2024-05-09T17:28:06.442Z,55.52
2024-05-09T17:30:36.981Z,57.22
2024-05-09T17:33:06.366Z,56.57
2024-05-09T17:35:33.208Z,56.83
2024-05-09T17:38:01.825Z,56.75
2024-05-09T17:40:33.597Z,57.86
2024-05-09T17:43:03.733Z,58.03
2024-05-09T17:45:31.084Z,56.92
2024-05-09T17:47:58.392Z,57.27
2024-05-09T17:50:31.495Z,56.81
2024-05-09T17:53:02.352Z,57.97
2024-05-09T17:55:29.544Z,58.19
2024-05-09T17:57:56.737Z,58.01
2024-05-09T18:00:35.700Z,60.14
2024-05-09T18:03:06.456Z,60.65
2024-05-09T18:05:36.178Z,60.86
2024-05-09T18:08:03.733Z,60.96
2024-05-09T18:10:36.437Z,61.16
2024-05-09T18:13:06.527Z,62.16
2024-05-09T18:15:35.003Z,61.56
2024-05-09T18:18:03.374Z,61.82
2024-05-09T18:20:39.348Z,61.76
2024-05-09T18:23:10.977Z,61.62
2024-05-09T18:25:37.739Z,62.66
2024-05-09T18:28:05.652Z,62.95
2024-05-09T18:30:35.569Z,62.45
2024-05-09T18:33:08.154Z,63.10
2024-05-09T18:35:36.994Z,62.48
2024-05-09T18:38:04.948Z,63.79
2024-05-09T18:40:35.662Z,63.13
2024-05-09T18:43:06.852Z,63.55
2024-05-09T18:45:35.737Z,64.33
2024-05-09T18:48:05.760Z,64.66
2024-05-09T18:50:37.524Z,65.08
2024-05-09T18:53:06.760Z,65.36
2024-05-09T18:55:33.858Z,65.30
2024-05-09T18:58:00.700Z,65.39
2024-05-09T19:00:34.355Z,65.34
2024-05-09T19:03:05.841Z,65.36
2024-05-09T19:05:35.324Z,65.85
2024-05-09T19:08:02.883Z,66.51
2024-05-09T19:10:34.241Z,66.63
2024-05-09T19:13:06.511Z,66.98
2024-05-09T19:15:37.413Z,66.98
2024-05-09T19:18:04.663Z,67.03
2024-05-09T19:20:34.555Z,66.53
2024-05-09T19:23:02.800Z,66.57
2024-05-09T19:25:29.769Z,66.48
2024-05-09T19:27:56.613Z,67.55
2024-05-09T19:30:30.498Z,67.67
2024-05-09T19:33:05.858Z,67.61
2024-05-09T19:35:33.110Z,67.23
2024-05-09T19:38:00.252Z,67.23
2024-05-09T19:40:31.512Z,67.66
2024-05-09T19:43:01.723Z,67.73
2024-05-09T19:45:29.219Z,68.01
2024-05-09T19:47:56.401Z,67.89
2024-05-09T19:50:32.117Z,68.01
2024-05-09T19:53:06.760Z,67.60
2024-05-09T19:55:34.152Z,67.88
2024-05-09T19:58:05.154Z,67.79
2024-05-09T20:00:39.695Z,68.49
2024-05-09T20:03:09.858Z,69.07
2024-05-09T20:05:37.666Z,68.76
2024-05-09T20:08:05.681Z,68.47
2024-05-09T20:10:35.005Z,68.98
2024-05-09T20:13:03.784Z,68.58
2024-05-09T20:15:35.736Z,68.98
2024-05-09T20:18:02.791Z,68.99
2024-05-09T20:20:37.282Z,69.25
2024-05-09T20:23:08.485Z,68.98
2024-05-09T20:25:35.271Z,68.59
2024-05-09T20:28:02.183Z,68.72
2024-05-09T20:30:32.580Z,68.36
2024-05-09T20:33:02.899Z,69.04
2024-05-09T20:35:33.036Z,69.14
2024-05-09T20:38:01.153Z,69.09
2024-05-09T20:40:32.890Z,69.00
2024-05-09T20:43:03.430Z,69.31
2024-05-09T20:45:30.143Z,69.60
2024-05-09T20:47:57.551Z,69.64
2024-05-09T20:50:35.387Z,69.41
2024-05-09T20:53:07.364Z,69.77
2024-05-09T20:55:34.151Z,69.69
2024-05-09T20:58:00.892Z,69.15
2024-05-09T21:00:35.405Z,69.49
2024-05-09T21:03:07.341Z,69.54
2024-05-09T21:05:35.136Z,69.71
2024-05-09T21:08:02.365Z,69.26
2024-05-09T21:10:32.948Z,69.97
2024-05-09T21:13:02.243Z,70.10
2024-05-09T21:15:29.949Z,70.33
2024-05-09T21:17:56.694Z,69.66
2024-05-09T21:20:28.907Z,70.30
2024-05-09T21:22:58.679Z,70.11
2024-05-09T21:25:25.723Z,70.66
2024-05-09T21:27:52.672Z,71.12
2024-05-09T21:30:31.280Z,70.80
2024-05-09T21:33:06.036Z,71.38
2024-05-09T21:35:32.913Z,71.33
2024-05-09T21:37:59.655Z,71.83
2024-05-09T21:40:33.444Z,72.08
2024-05-09T21:43:02.412Z,71.97
2024-05-09T21:45:32.604Z,71.97
2024-05-09T21:47:59.614Z,71.43
2024-05-09T21:50:36.112Z,71.66
2024-05-09T21:53:07.234Z,71.89
2024-05-09T21:55:34.342Z,72.51
2024-05-09T21:58:01.311Z,72.18
2024-05-09T22:00:35.519Z,72.35
2024-05-09T22:03:05.618Z,72.36
2024-05-09T22:05:32.763Z,72.44
2024-05-09T22:07:59.616Z,72.09
2024-05-09T22:10:32.820Z,72.48
2024-05-09T22:13:02.058Z,73.18
2024-05-09T22:15:28.918Z,72.74
2024-05-09T22:17:56.852Z,72.41
2024-05-09T22:20:32.940Z,72.36
2024-05-09T22:23:04.300Z,72.64
2024-05-09T22:25:32.182Z,72.41
2024-05-09T22:27:59.929Z,72.59
2024-05-09T22:30:34.971Z,72.90
2024-05-09T22:33:06.161Z,72.94
2024-05-09T22:35:33.195Z,72.90
2024-05-09T22:38:00.089Z,72.35
2024-05-09T22:40:38.274Z,72.47
2024-05-09T22:43:13.236Z,72.86
2024-05-09T22:45:40.244Z,72.31
2024-05-09T22:48:08.713Z,72.15
2024-05-09T22:50:35.757Z,72.66
2024-05-09T22:53:02.608Z,73.21
2024-05-09T22:55:29.422Z,73.24
2024-05-09T22:57:56.419Z,73.55
2024-05-09T23:00:31.331Z,73.31
2024-05-09T23:03:03.114Z,73.70
2024-05-09T23:05:32.322Z,73.83
2024-05-09T23:08:01.410Z,72.84
2024-05-09T23:10:35.238Z,73.39
2024-05-09T23:13:04.533Z,73.63
2024-05-09T23:15:31.655Z,74.04
2024-05-09T23:17:58.981Z,74.19
2024-05-09T23:20:33.531Z,73.98
2024-05-09T23:23:05.356Z,74.05
2024-05-09T23:25:32.076Z,74.13
2024-05-09T23:27:58.873Z,73.66
2024-05-09T23:30:34.062Z,73.29
2024-05-09T23:33:05.880Z,73.52
2024-05-09T23:35:32.970Z,73.30
2024-05-09T23:37:59.677Z,73.33
2024-05-09T23:40:37.114Z,73.24
2024-05-09T23:43:07.198Z,73.91
2024-05-09T23:45:34.485Z,74.02
2024-05-09T23:48:01.640Z,74.19
2024-05-09T23:50:35.776Z,73.81
2024-05-09T23:53:06.304Z,73.71
2024-05-09T23:55:33.948Z,74.00
2024-05-09T23:58:00.902Z,73.58
